Terminal Aerodrome Forecast
Issued by NWS Goodland, KS

Home | Current Version | Previous Version | Text Only | Print | Product List | Glossary On
Versions: 1 2 3 4 5 6 7 8 9 10 11 12 13 14 15 16 17 18 19 20 21 22 23 24
000
FTUS43 KGLD 271018 AAD
TAFGLD
TAF AMD
KGLD 271018Z 2710/2806 16003KT 1/4SM FG VV002
      TEMPO 2713/2714 1SM BR VV002
     FM271400 23004KT 3SM BR SCT005 SCT200
     FM271600 19005KT P6SM SCT200
     FM272100 15008KT P6SM SCT060 BKN150=

USA.gov is the U.S. government's official web portal to all federal, state and local government web resources and services.